createdAt,value
2022-10-23T00:00:39.890Z,2.85
2022-10-23T00:06:04.369Z,2.63
2022-10-23T00:11:28.084Z,3.38
2022-10-23T00:16:57.335Z,2.83
2022-10-23T00:22:18.155Z,3.22
2022-10-23T00:27:38.680Z,3.00
2022-10-23T00:32:59.766Z,2.67
2022-10-23T00:38:20.131Z,2.80
2022-10-23T00:44:29.433Z,2.72
2022-10-23T00:49:49.767Z,2.78
2022-10-23T00:55:11.205Z,3.53
2022-10-23T01:00:52.192Z,3.15
2022-10-23T01:06:30.370Z,2.55
2022-10-23T01:12:02.899Z,2.67
2022-10-23T01:17:47.898Z,2.22
2022-10-23T01:23:46.577Z,3.42
2022-10-23T01:29:15.124Z,2.78
2022-10-23T01:34:51.770Z,3.20
2022-10-23T01:40:31.609Z,2.78
2022-10-23T01:46:00.451Z,2.22
2022-10-23T01:51:27.256Z,2.92
2022-10-23T01:56:51.497Z,3.67
2022-10-23T02:02:18.989Z,3.25
2022-10-23T02:07:40.316Z,3.08
2022-10-23T02:13:13.133Z,3.53
2022-10-23T02:18:44.536Z,3.22
2022-10-23T02:24:15.663Z,2.67
2022-10-23T02:29:48.403Z,3.03
2022-10-23T02:35:11.146Z,3.53
2022-10-23T02:40:40.866Z,3.95
2022-10-23T02:46:21.671Z,3.97
2022-10-23T02:52:04.099Z,3.83
2022-10-23T02:57:44.769Z,3.50
2022-10-23T03:03:11.725Z,3.95
2022-10-23T03:08:59.988Z,4.07
2022-10-23T03:14:20.874Z,3.75
2022-10-23T03:19:41.529Z,3.88
2022-10-23T03:25:02.096Z,3.33
2022-10-23T03:30:25.309Z,3.75
2022-10-23T03:35:49.219Z,4.30
2022-10-23T03:41:10.439Z,3.70
2022-10-23T03:46:31.245Z,5.00
2022-10-23T03:51:52.960Z,4.72
2022-10-23T03:57:14.741Z,4.75
2022-10-23T04:02:35.566Z,4.65
2022-10-23T04:07:57.796Z,3.58
2022-10-23T04:13:19.124Z,4.07
2022-10-23T04:18:41.551Z,4.15
2022-10-23T04:24:04.125Z,4.43
2022-10-23T04:29:25.241Z,4.53
2022-10-23T04:34:46.689Z,4.68
2022-10-23T04:40:08.532Z,4.50
2022-10-23T04:45:30.972Z,4.78
2022-10-23T04:51:04.369Z,4.50
2022-10-23T05:02:12.921Z,4.33
2022-10-23T05:07:34.738Z,4.40
2022-10-23T05:18:34.530Z,5.00
2022-10-23T05:23:57.549Z,4.60
2022-10-23T05:29:19.060Z,5.03
2022-10-23T05:34:41.084Z,4.72
2022-10-23T05:40:05.584Z,5.72
2022-10-23T05:45:29.192Z,4.95
2022-10-23T05:51:11.525Z,5.20
2022-10-23T05:56:46.971Z,4.25
2022-10-23T06:02:24.987Z,5.72
2022-10-23T06:07:51.213Z,4.65
2022-10-23T06:13:13.914Z,4.25
2022-10-23T06:18:35.031Z,4.80
2022-10-23T06:24:02.438Z,4.95
2022-10-23T06:29:25.936Z,5.03
2022-10-23T06:34:47.531Z,5.35
2022-10-23T06:40:08.855Z,5.22
2022-10-23T06:45:52.308Z,4.10
2022-10-23T06:51:32.145Z,4.75
2022-10-23T06:56:53.276Z,5.57
2022-10-23T07:02:24.483Z,5.00
2022-10-23T07:07:45.327Z,5.65
2022-10-23T07:13:11.494Z,5.53
2022-10-23T07:18:58.756Z,5.10
2022-10-23T07:24:22.166Z,4.78
2022-10-23T07:29:43.376Z,6.35
2022-10-23T07:35:04.565Z,6.30
2022-10-23T07:40:29.543Z,6.13
2022-10-23T07:45:51.007Z,8.25
2022-10-23T07:51:23.808Z,6.82
2022-10-23T07:56:50.181Z,7.05
2022-10-23T08:02:29.878Z,9.05
2022-10-23T08:07:51.047Z,7.10
2022-10-23T08:13:13.239Z,7.78
2022-10-23T08:24:17.976Z,9.23
2022-10-23T08:29:41.542Z,9.33
2022-10-23T08:35:02.982Z,10.77
2022-10-23T08:40:26.073Z,8.60
2022-10-23T08:46:10.829Z,8.20
2022-10-23T08:51:54.833Z,8.48
2022-10-23T08:57:18.414Z,10.55
2022-10-23T09:02:43.610Z,9.00
2022-10-23T09:08:20.396Z,11.60
2022-10-23T09:14:07.570Z,12.68
2022-10-23T09:19:29.312Z,12.35
2022-10-23T09:24:53.746Z,12.77
2022-10-23T09:30:38.403Z,13.13
2022-10-23T09:36:13.842Z,11.63
2022-10-23T09:41:39.853Z,10.60
2022-10-23T09:47:06.095Z,11.68
2022-10-23T09:52:37.317Z,10.60
2022-10-23T09:57:57.763Z,9.38
2022-10-23T10:03:23.045Z,9.23
2022-10-23T10:09:00.270Z,9.70
2022-10-23T10:14:54.948Z,8.63
2022-10-23T10:20:45.395Z,9.63
2022-10-23T10:26:34.798Z,10.32
2022-10-23T10:32:24.691Z,8.25
2022-10-23T10:37:49.535Z,8.02
2022-10-23T10:44:01.758Z,8.00
2022-10-23T10:49:42.628Z,8.13
2022-10-23T10:55:32.204Z,7.40
2022-10-23T11:00:56.913Z,7.28
2022-10-23T11:06:22.585Z,6.70
2022-10-23T11:11:43.851Z,7.68
2022-10-23T11:17:24.656Z,8.27
2022-10-23T11:23:29.733Z,7.55
2022-10-23T11:29:05.659Z,8.07
2022-10-23T11:34:44.021Z,6.82
2022-10-23T11:40:07.645Z,6.10
2022-10-23T11:45:39.983Z,6.83
2022-10-23T11:51:02.845Z,6.47
2022-10-23T11:56:27.300Z,6.38
2022-10-23T12:01:51.764Z,6.78
2022-10-23T12:07:23.773Z,6.22
2022-10-23T12:12:55.900Z,5.63
2022-10-23T12:18:17.623Z,4.43
2022-10-23T12:23:59.684Z,4.68
2022-10-23T12:29:40.874Z,6.95
2022-10-23T12:35:26.299Z,3.53
2022-10-23T12:40:53.106Z,3.97
2022-10-23T12:46:31.051Z,3.72
2022-10-23T12:52:02.451Z,5.07
2022-10-23T12:57:28.794Z,4.63
2022-10-23T13:03:03.773Z,3.88
2022-10-23T13:08:32.272Z,5.05
2022-10-23T13:14:34.483Z,4.88
2022-10-23T13:19:54.933Z,5.50
2022-10-23T13:25:35.527Z,5.05
2022-10-23T13:31:24.180Z,5.60
2022-10-23T13:36:54.738Z,5.68
2022-10-23T13:42:15.351Z,5.60
2022-10-23T13:47:35.721Z,5.95
2022-10-23T13:52:56.594Z,5.93
2022-10-23T13:58:17.069Z,5.68
2022-10-23T14:03:37.611Z,5.57
2022-10-23T14:08:58.747Z,5.78
2022-10-23T14:14:19.307Z,5.90
2022-10-23T14:19:39.673Z,5.80
2022-10-23T14:25:00.175Z,6.70
2022-10-23T14:30:21.203Z,5.43
2022-10-23T14:35:43.254Z,5.30
2022-10-23T14:41:10.326Z,5.50
2022-10-23T14:46:30.806Z,5.15
2022-10-23T14:51:51.532Z,5.25
2022-10-23T14:57:16.807Z,5.28
2022-10-23T15:02:37.431Z,6.15
2022-10-23T15:07:58.981Z,5.63
2022-10-23T15:13:19.375Z,4.60
2022-10-23T15:18:39.840Z,4.80
2022-10-23T15:24:00.756Z,4.70
2022-10-23T15:29:21.773Z,5.30
2022-10-23T15:34:42.822Z,5.65
2022-10-23T15:40:03.674Z,4.38
2022-10-23T15:45:26.628Z,5.20
2022-10-23T15:50:49.891Z,4.90
2022-10-23T15:56:10.570Z,4.82
2022-10-23T16:01:31.241Z,5.03
2022-10-23T16:06:52.150Z,4.40
2022-10-23T16:12:12.716Z,5.43
2022-10-23T16:17:33.113Z,5.43
2022-10-23T16:22:53.531Z,5.70
2022-10-23T16:28:14.379Z,5.18
2022-10-23T16:33:34.803Z,6.03
2022-10-23T16:38:55.987Z,6.07
2022-10-23T16:44:36.388Z,6.05
2022-10-23T16:49:59.558Z,7.28
2022-10-23T16:55:19.887Z,7.03
2022-10-23T17:00:40.493Z,8.18
2022-10-23T17:06:02.307Z,9.73
2022-10-23T17:11:26.816Z,8.82
2022-10-23T17:16:49.735Z,10.60
2022-10-23T17:22:12.436Z,10.90
2022-10-23T17:27:33.055Z,12.02
2022-10-23T17:32:54.433Z,12.80
2022-10-23T17:38:18.046Z,13.32
2022-10-23T17:43:39.031Z,14.40
2022-10-23T17:54:27.354Z,16.60
2022-10-23T17:59:48.217Z,15.55
2022-10-23T18:05:09.414Z,14.55
2022-10-23T18:10:30.412Z,15.38
2022-10-23T18:15:51.628Z,15.07
2022-10-23T18:21:12.184Z,13.27
2022-10-23T18:26:35.095Z,13.40
2022-10-23T18:31:55.792Z,15.18
2022-10-23T18:37:16.395Z,12.50
2022-10-23T18:42:36.995Z,14.00
2022-10-23T18:47:57.746Z,13.02
2022-10-23T18:53:18.328Z,13.18
2022-10-23T18:58:38.931Z,14.00
2022-10-23T19:04:00.972Z,12.95
2022-10-23T19:09:21.632Z,13.73
2022-10-23T19:14:42.265Z,13.13
2022-10-23T19:20:10.845Z,13.68
2022-10-23T19:25:33.740Z,13.02
2022-10-23T19:30:54.162Z,12.07
2022-10-23T19:36:15.051Z,11.95
2022-10-23T19:41:39.859Z,10.38
2022-10-23T19:47:00.573Z,11.68
2022-10-23T19:52:22.704Z,10.98
2022-10-23T19:57:43.735Z,11.48
2022-10-23T20:03:04.286Z,10.98
2022-10-23T20:08:24.819Z,11.32
2022-10-23T20:13:45.296Z,12.05
2022-10-23T20:19:09.076Z,13.13
2022-10-23T20:24:30.523Z,10.37
2022-10-23T20:29:51.145Z,11.27
2022-10-23T20:35:11.580Z,11.10
2022-10-23T20:40:33.613Z,9.10
2022-10-23T20:45:54.300Z,10.20
2022-10-23T20:51:17.842Z,10.43
2022-10-23T20:56:39.544Z,10.02
2022-10-23T21:02:00.034Z,9.15
2022-10-23T21:07:21.140Z,8.65
2022-10-23T21:12:42.280Z,7.65
2022-10-23T21:18:13.142Z,7.43
2022-10-23T21:23:43.763Z,7.18
2022-10-23T21:29:17.860Z,7.10
2022-10-23T21:34:39.124Z,6.13
2022-10-23T21:39:59.870Z,5.68
2022-10-23T21:45:20.648Z,6.00
2022-10-23T21:50:41.037Z,6.28
2022-10-23T21:56:05.168Z,4.95
2022-10-23T22:01:53.242Z,4.55
2022-10-23T22:07:15.166Z,4.80
2022-10-23T22:12:36.041Z,4.18
2022-10-23T22:17:59.095Z,4.22
2022-10-23T22:23:19.607Z,4.95
2022-10-23T22:28:39.904Z,4.18
2022-10-23T22:34:13.147Z,5.28
2022-10-23T22:39:43.219Z,4.45
2022-10-23T22:45:03.909Z,4.68
2022-10-23T22:50:24.466Z,4.45
2022-10-23T22:55:45.471Z,4.53
2022-10-23T23:01:08.620Z,3.92
2022-10-23T23:06:29.300Z,4.63
2022-10-23T23:11:53.002Z,4.28
2022-10-23T23:17:13.920Z,4.55
2022-10-23T23:22:34.654Z,5.10
2022-10-23T23:27:55.133Z,4.20
2022-10-23T23:33:19.172Z,4.13
2022-10-23T23:38:39.909Z,3.92
2022-10-23T23:44:00.700Z,5.65
2022-10-23T23:49:21.943Z,4.78
2022-10-23T23:54:43.835Z,3.38
